sensor_id;sensor_type;location;lat;lon;timestamp;P1;durP1;ratioP1;P2;durP2;ratioP2
14306;SDS011;7237;49.500;11.400;2022-07-29T00:00:21;2.97;;;1.95;;
14306;SDS011;7237;49.500;11.400;2022-07-29T00:02:48;3.95;;;2.33;;
14306;SDS011;7237;49.500;11.400;2022-07-29T00:05:15;4.90;;;2.05;;
14306;SDS011;7237;49.500;11.400;2022-07-29T00:07:42;2.20;;;1.65;;
14306;SDS011;7237;49.500;11.400;2022-07-29T00:10:09;3.30;;;1.75;;
14306;SDS011;7237;49.500;11.400;2022-07-29T00:12:36;13.02;;;2.25;;
14306;SDS011;7237;49.500;11.400;2022-07-29T00:15:05;5.43;;;1.90;;
14306;SDS011;7237;49.500;11.400;2022-07-29T00:17:32;5.13;;;1.95;;
14306;SDS011;7237;49.500;11.400;2022-07-29T00:19:59;1.98;;;1.60;;
14306;SDS011;7237;49.500;11.400;2022-07-29T00:22:26;6.00;;;1.95;;
14306;SDS011;7237;49.500;11.400;2022-07-29T00:24:53;4.07;;;1.50;;
14306;SDS011;7237;49.500;11.400;2022-07-29T00:27:20;4.68;;;2.00;;
14306;SDS011;7237;49.500;11.400;2022-07-29T00:29:47;2.35;;;1.83;;
14306;SDS011;7237;49.500;11.400;2022-07-29T00:32:16;2.88;;;1.88;;
14306;SDS011;7237;49.500;11.400;2022-07-29T00:34:43;8.18;;;1.98;;
14306;SDS011;7237;49.500;11.400;2022-07-29T00:37:28;3.50;;;2.10;;
14306;SDS011;7237;49.500;11.400;2022-07-29T00:39:55;3.55;;;1.77;;
14306;SDS011;7237;49.500;11.400;2022-07-29T00:42:22;2.75;;;1.67;;
14306;SDS011;7237;49.500;11.400;2022-07-29T00:44:49;1.98;;;1.77;;
14306;SDS011;7237;49.500;11.400;2022-07-29T00:47:17;4.25;;;1.80;;
14306;SDS011;7237;49.500;11.400;2022-07-29T00:49:44;5.68;;;1.50;;
14306;SDS011;7237;49.500;11.400;2022-07-29T00:52:12;1.83;;;1.40;;
14306;SDS011;7237;49.500;11.400;2022-07-29T00:54:39;5.15;;;2.08;;
14306;SDS011;7237;49.500;11.400;2022-07-29T00:57:06;5.25;;;1.70;;
14306;SDS011;7237;49.500;11.400;2022-07-29T00:59:34;3.67;;;2.08;;
14306;SDS011;7237;49.500;11.400;2022-07-29T01:02:01;3.75;;;1.60;;
14306;SDS011;7237;49.500;11.400;2022-07-29T01:04:29;3.95;;;1.70;;
14306;SDS011;7237;49.500;11.400;2022-07-29T01:06:57;6.28;;;2.20;;
14306;SDS011;7237;49.500;11.400;2022-07-29T01:09:25;2.50;;;1.35;;
14306;SDS011;7237;49.500;11.400;2022-07-29T01:11:52;4.32;;;2.05;;
14306;SDS011;7237;49.500;11.400;2022-07-29T01:14:20;6.18;;;1.77;;
14306;SDS011;7237;49.500;11.400;2022-07-29T01:16:50;4.70;;;2.03;;
14306;SDS011;7237;49.500;11.400;2022-07-29T01:19:25;5.18;;;1.90;;
14306;SDS011;7237;49.500;11.400;2022-07-29T01:21:57;6.35;;;1.70;;
14306;SDS011;7237;49.500;11.400;2022-07-29T01:24:39;3.78;;;1.80;;
14306;SDS011;7237;49.500;11.400;2022-07-29T01:27:13;2.45;;;1.83;;
14306;SDS011;7237;49.500;11.400;2022-07-29T01:29:46;2.03;;;1.70;;
14306;SDS011;7237;49.500;11.400;2022-07-29T01:32:18;2.15;;;1.60;;
14306;SDS011;7237;49.500;11.400;2022-07-29T01:34:47;5.22;;;1.67;;
14306;SDS011;7237;49.500;11.400;2022-07-29T01:37:18;8.57;;;1.80;;
14306;SDS011;7237;49.500;11.400;2022-07-29T01:39:47;2.88;;;1.52;;
14306;SDS011;7237;49.500;11.400;2022-07-29T01:42:15;2.67;;;1.67;;
14306;SDS011;7237;49.500;11.400;2022-07-29T01:44:50;2.28;;;1.85;;
14306;SDS011;7237;49.500;11.400;2022-07-29T01:47:21;5.50;;;1.70;;
14306;SDS011;7237;49.500;11.400;2022-07-29T01:49:50;3.78;;;1.80;;
14306;SDS011;7237;49.500;11.400;2022-07-29T01:52:19;5.95;;;1.67;;
14306;SDS011;7237;49.500;11.400;2022-07-29T01:54:48;5.65;;;2.03;;
14306;SDS011;7237;49.500;11.400;2022-07-29T01:57:16;2.15;;;1.95;;
14306;SDS011;7237;49.500;11.400;2022-07-29T01:59:45;3.92;;;1.65;;
14306;SDS011;7237;49.500;11.400;2022-07-29T02:02:15;7.50;;;2.03;;
14306;SDS011;7237;49.500;11.400;2022-07-29T02:04:42;2.55;;;1.75;;
14306;SDS011;7237;49.500;11.400;2022-07-29T02:07:10;2.15;;;1.90;;
14306;SDS011;7237;49.500;11.400;2022-07-29T02:09:39;2.55;;;1.73;;
14306;SDS011;7237;49.500;11.400;2022-07-29T02:12:08;2.20;;;1.48;;
14306;SDS011;7237;49.500;11.400;2022-07-29T02:14:37;1.75;;;1.42;;
14306;SDS011;7237;49.500;11.400;2022-07-29T02:17:05;4.40;;;1.60;;
14306;SDS011;7237;49.500;11.400;2022-07-29T02:19:33;2.95;;;1.60;;
14306;SDS011;7237;49.500;11.400;2022-07-29T02:22:01;4.95;;;1.60;;
14306;SDS011;7237;49.500;11.400;2022-07-29T02:24:28;2.83;;;1.55;;
14306;SDS011;7237;49.500;11.400;2022-07-29T02:26:56;6.22;;;1.83;;
14306;SDS011;7237;49.500;11.400;2022-07-29T02:29:25;2.25;;;1.70;;
14306;SDS011;7237;49.500;11.400;2022-07-29T02:31:53;2.38;;;1.65;;
14306;SDS011;7237;49.500;11.400;2022-07-29T02:34:20;5.00;;;1.70;;
14306;SDS011;7237;49.500;11.400;2022-07-29T02:36:49;3.58;;;1.90;;
14306;SDS011;7237;49.500;11.400;2022-07-29T02:39:16;4.78;;;2.08;;
14306;SDS011;7237;49.500;11.400;2022-07-29T02:41:44;8.00;;;1.92;;
14306;SDS011;7237;49.500;11.400;2022-07-29T02:44:12;6.50;;;2.30;;
14306;SDS011;7237;49.500;11.400;2022-07-29T02:46:41;2.50;;;1.42;;
14306;SDS011;7237;49.500;11.400;2022-07-29T02:49:10;3.15;;;1.67;;
14306;SDS011;7237;49.500;11.400;2022-07-29T02:51:41;4.65;;;1.75;;
14306;SDS011;7237;49.500;11.400;2022-07-29T02:54:10;5.03;;;1.88;;
14306;SDS011;7237;49.500;11.400;2022-07-29T02:56:37;2.50;;;1.73;;
14306;SDS011;7237;49.500;11.400;2022-07-29T02:59:07;2.85;;;1.77;;
14306;SDS011;7237;49.500;11.400;2022-07-29T03:01:34;2.63;;;1.50;;
14306;SDS011;7237;49.500;11.400;2022-07-29T03:04:03;3.70;;;1.60;;
14306;SDS011;7237;49.500;11.400;2022-07-29T03:06:31;6.50;;;1.83;;
14306;SDS011;7237;49.500;11.400;2022-07-29T03:08:59;5.80;;;1.65;;
14306;SDS011;7237;49.500;11.400;2022-07-29T03:11:28;4.95;;;1.70;;
14306;SDS011;7237;49.500;11.400;2022-07-29T03:13:55;3.90;;;1.83;;
14306;SDS011;7237;49.500;11.400;2022-07-29T03:16:23;3.97;;;1.90;;
14306;SDS011;7237;49.500;11.400;2022-07-29T03:18:50;5.63;;;1.58;;
14306;SDS011;7237;49.500;11.400;2022-07-29T03:21:17;1.50;;;1.40;;
14306;SDS011;7237;49.500;11.400;2022-07-29T03:23:44;2.67;;;1.50;;
14306;SDS011;7237;49.500;11.400;2022-07-29T03:26:12;3.38;;;1.58;;
14306;SDS011;7237;49.500;11.400;2022-07-29T03:28:40;2.95;;;1.60;;
14306;SDS011;7237;49.500;11.400;2022-07-29T03:31:07;4.78;;;1.50;;
14306;SDS011;7237;49.500;11.400;2022-07-29T03:33:34;2.28;;;1.67;;
14306;SDS011;7237;49.500;11.400;2022-07-29T03:36:01;5.38;;;1.90;;
14306;SDS011;7237;49.500;11.400;2022-07-29T03:38:29;4.65;;;1.75;;
14306;SDS011;7237;49.500;11.400;2022-07-29T03:40:58;5.55;;;1.92;;
14306;SDS011;7237;49.500;11.400;2022-07-29T03:43:26;4.53;;;1.88;;
14306;SDS011;7237;49.500;11.400;2022-07-29T03:45:56;3.67;;;2.00;;
14306;SDS011;7237;49.500;11.400;2022-07-29T03:48:24;5.03;;;2.15;;
14306;SDS011;7237;49.500;11.400;2022-07-29T03:50:54;5.22;;;1.98;;
14306;SDS011;7237;49.500;11.400;2022-07-29T03:53:22;3.25;;;1.75;;
14306;SDS011;7237;49.500;11.400;2022-07-29T03:55:50;3.25;;;1.77;;
14306;SDS011;7237;49.500;11.400;2022-07-29T03:58:19;3.75;;;1.88;;
14306;SDS011;7237;49.500;11.400;2022-07-29T04:00:46;6.78;;;1.98;;
14306;SDS011;7237;49.500;11.400;2022-07-29T04:03:14;5.43;;;1.80;;
14306;SDS011;7237;49.500;11.400;2022-07-29T04:05:41;4.53;;;1.60;;
14306;SDS011;7237;49.500;11.400;2022-07-29T04:08:08;5.05;;;2.17;;
14306;SDS011;7237;49.500;11.400;2022-07-29T04:10:35;2.40;;;1.70;;
14306;SDS011;7237;49.500;11.400;2022-07-29T04:13:02;2.65;;;1.60;;
14306;SDS011;7237;49.500;11.400;2022-07-29T04:15:29;2.45;;;1.60;;
14306;SDS011;7237;49.500;11.400;2022-07-29T04:17:56;3.45;;;1.95;;
14306;SDS011;7237;49.500;11.400;2022-07-29T04:20:25;1.90;;;1.77;;
14306;SDS011;7237;49.500;11.400;2022-07-29T04:22:52;2.60;;;1.90;;
14306;SDS011;7237;49.500;11.400;2022-07-29T04:25:19;6.03;;;2.10;;
14306;SDS011;7237;49.500;11.400;2022-07-29T04:27:46;3.58;;;1.85;;
14306;SDS011;7237;49.500;11.400;2022-07-29T04:30:29;3.33;;;1.90;;
14306;SDS011;7237;49.500;11.400;2022-07-29T04:32:56;6.60;;;1.98;;
14306;SDS011;7237;49.500;11.400;2022-07-29T04:35:23;3.70;;;1.90;;
14306;SDS011;7237;49.500;11.400;2022-07-29T04:37:52;3.40;;;1.80;;
14306;SDS011;7237;49.500;11.400;2022-07-29T04:40:19;6.75;;;2.20;;
14306;SDS011;7237;49.500;11.400;2022-07-29T04:42:46;5.47;;;1.92;;
14306;SDS011;7237;49.500;11.400;2022-07-29T04:45:13;2.70;;;1.85;;
14306;SDS011;7237;49.500;11.400;2022-07-29T04:47:40;3.75;;;1.40;;
14306;SDS011;7237;49.500;11.400;2022-07-29T04:50:08;3.42;;;1.55;;
14306;SDS011;7237;49.500;11.400;2022-07-29T04:52:35;5.10;;;2.15;;
14306;SDS011;7237;49.500;11.400;2022-07-29T04:55:04;6.68;;;2.20;;
14306;SDS011;7237;49.500;11.400;2022-07-29T04:57:31;3.03;;;2.00;;
14306;SDS011;7237;49.500;11.400;2022-07-29T04:59:59;2.17;;;1.63;;
14306;SDS011;7237;49.500;11.400;2022-07-29T05:02:26;6.18;;;1.92;;
14306;SDS011;7237;49.500;11.400;2022-07-29T05:04:53;3.13;;;2.13;;
14306;SDS011;7237;49.500;11.400;2022-07-29T05:07:20;4.47;;;1.88;;
14306;SDS011;7237;49.500;11.400;2022-07-29T05:09:47;3.95;;;1.88;;
14306;SDS011;7237;49.500;11.400;2022-07-29T05:12:15;8.30;;;2.17;;
14306;SDS011;7237;49.500;11.400;2022-07-29T05:14:42;3.33;;;1.83;;
14306;SDS011;7237;49.500;11.400;2022-07-29T05:17:09;4.20;;;2.00;;
14306;SDS011;7237;49.500;11.400;2022-07-29T05:19:36;3.45;;;1.65;;
14306;SDS011;7237;49.500;11.400;2022-07-29T05:22:03;3.95;;;1.67;;
14306;SDS011;7237;49.500;11.400;2022-07-29T05:24:30;2.33;;;1.67;;
14306;SDS011;7237;49.500;11.400;2022-07-29T05:26:57;2.42;;;1.77;;
14306;SDS011;7237;49.500;11.400;2022-07-29T05:29:26;3.75;;;1.65;;
14306;SDS011;7237;49.500;11.400;2022-07-29T05:31:53;2.58;;;1.67;;
14306;SDS011;7237;49.500;11.400;2022-07-29T05:34:20;3.10;;;1.90;;
14306;SDS011;7237;49.500;11.400;2022-07-29T05:36:47;7.50;;;1.95;;
14306;SDS011;7237;49.500;11.400;2022-07-29T05:39:15;3.45;;;1.90;;
14306;SDS011;7237;49.500;11.400;2022-07-29T05:41:42;5.65;;;2.13;;
14306;SDS011;7237;49.500;11.400;2022-07-29T05:44:09;4.00;;;2.08;;
14306;SDS011;7237;49.500;11.400;2022-07-29T05:46:37;3.53;;;1.63;;
14306;SDS011;7237;49.500;11.400;2022-07-29T05:49:04;5.20;;;1.90;;
14306;SDS011;7237;49.500;11.400;2022-07-29T05:51:32;3.13;;;1.90;;
14306;SDS011;7237;49.500;11.400;2022-07-29T05:53:59;5.35;;;2.28;;
14306;SDS011;7237;49.500;11.400;2022-07-29T05:56:26;4.35;;;1.70;;
14306;SDS011;7237;49.500;11.400;2022-07-29T05:58:53;3.28;;;1.90;;
14306;SDS011;7237;49.500;11.400;2022-07-29T06:01:20;9.85;;;2.13;;
14306;SDS011;7237;49.500;11.400;2022-07-29T06:03:49;4.35;;;1.90;;
14306;SDS011;7237;49.500;11.400;2022-07-29T06:06:16;3.20;;;1.90;;
14306;SDS011;7237;49.500;11.400;2022-07-29T06:08:43;5.70;;;2.03;;
14306;SDS011;7237;49.500;11.400;2022-07-29T06:11:10;3.42;;;1.60;;
14306;SDS011;7237;49.500;11.400;2022-07-29T06:13:37;6.28;;;2.25;;
14306;SDS011;7237;49.500;11.400;2022-07-29T06:16:04;2.80;;;1.67;;
14306;SDS011;7237;49.500;11.400;2022-07-29T06:18:31;3.97;;;1.80;;
14306;SDS011;7237;49.500;11.400;2022-07-29T06:20:59;4.90;;;2.15;;
14306;SDS011;7237;49.500;11.400;2022-07-29T06:23:26;2.97;;;1.77;;
14306;SDS011;7237;49.500;11.400;2022-07-29T06:25:54;3.60;;;1.92;;
14306;SDS011;7237;49.500;11.400;2022-07-29T06:28:21;2.80;;;1.80;;
14306;SDS011;7237;49.500;11.400;2022-07-29T06:30:48;4.47;;;1.90;;
14306;SDS011;7237;49.500;11.400;2022-07-29T06:33:18;4.30;;;1.92;;
14306;SDS011;7237;49.500;11.400;2022-07-29T06:35:45;3.00;;;1.88;;
14306;SDS011;7237;49.500;11.400;2022-07-29T06:38:15;4.20;;;2.10;;
14306;SDS011;7237;49.500;11.400;2022-07-29T06:40:42;3.83;;;1.90;;
14306;SDS011;7237;49.500;11.400;2022-07-29T06:43:29;3.17;;;1.63;;
14306;SDS011;7237;49.500;11.400;2022-07-29T06:45:59;3.10;;;1.60;;
14306;SDS011;7237;49.500;11.400;2022-07-29T06:48:26;1.70;;;1.50;;
14306;SDS011;7237;49.500;11.400;2022-07-29T06:50:53;4.40;;;1.33;;
14306;SDS011;7237;49.500;11.400;2022-07-29T06:53:21;3.78;;;1.88;;
14306;SDS011;7237;49.500;11.400;2022-07-29T06:55:49;3.22;;;1.90;;
14306;SDS011;7237;49.500;11.400;2022-07-29T06:58:16;3.58;;;1.92;;
14306;SDS011;7237;49.500;11.400;2022-07-29T07:00:45;5.40;;;1.95;;
14306;SDS011;7237;49.500;11.400;2022-07-29T07:03:12;4.18;;;2.40;;
14306;SDS011;7237;49.500;11.400;2022-07-29T07:05:39;2.75;;;2.13;;
14306;SDS011;7237;49.500;11.400;2022-07-29T07:08:06;4.32;;;1.80;;
14306;SDS011;7237;49.500;11.400;2022-07-29T07:10:35;4.35;;;1.77;;
14306;SDS011;7237;49.500;11.400;2022-07-29T07:13:02;3.53;;;1.65;;
14306;SDS011;7237;49.500;11.400;2022-07-29T07:15:29;2.80;;;1.90;;
14306;SDS011;7237;49.500;11.400;2022-07-29T07:17:56;3.65;;;1.85;;
14306;SDS011;7237;49.500;11.400;2022-07-29T07:20:24;4.57;;;2.22;;
14306;SDS011;7237;49.500;11.400;2022-07-29T07:22:51;4.28;;;1.95;;
14306;SDS011;7237;49.500;11.400;2022-07-29T07:25:18;6.85;;;2.10;;
14306;SDS011;7237;49.500;11.400;2022-07-29T07:27:46;4.15;;;1.83;;
14306;SDS011;7237;49.500;11.400;2022-07-29T07:30:14;3.40;;;2.53;;
14306;SDS011;7237;49.500;11.400;2022-07-29T07:32:41;6.03;;;2.03;;
14306;SDS011;7237;49.500;11.400;2022-07-29T07:35:08;2.10;;;1.73;;
14306;SDS011;7237;49.500;11.400;2022-07-29T07:37:36;5.35;;;2.08;;
14306;SDS011;7237;49.500;11.400;2022-07-29T07:40:03;6.38;;;2.40;;
14306;SDS011;7237;49.500;11.400;2022-07-29T07:42:31;2.28;;;2.05;;
14306;SDS011;7237;49.500;11.400;2022-07-29T07:44:59;6.18;;;1.95;;
14306;SDS011;7237;49.500;11.400;2022-07-29T07:47:26;6.55;;;2.40;;
14306;SDS011;7237;49.500;11.400;2022-07-29T07:49:53;4.25;;;2.85;;
14306;SDS011;7237;49.500;11.400;2022-07-29T07:52:21;5.07;;;2.70;;
14306;SDS011;7237;49.500;11.400;2022-07-29T07:54:48;8.57;;;2.60;;
14306;SDS011;7237;49.500;11.400;2022-07-29T07:57:15;6.53;;;2.40;;
14306;SDS011;7237;49.500;11.400;2022-07-29T07:59:43;4.68;;;1.95;;
14306;SDS011;7237;49.500;11.400;2022-07-29T08:02:11;3.00;;;2.00;;
14306;SDS011;7237;49.500;11.400;2022-07-29T08:04:38;4.18;;;2.08;;
14306;SDS011;7237;49.500;11.400;2022-07-29T08:07:06;3.33;;;2.08;;
14306;SDS011;7237;49.500;11.400;2022-07-29T08:09:33;2.70;;;2.03;;
14306;SDS011;7237;49.500;11.400;2022-07-29T08:12:01;3.75;;;2.03;;
14306;SDS011;7237;49.500;11.400;2022-07-29T08:14:29;6.20;;;1.92;;
14306;SDS011;7237;49.500;11.400;2022-07-29T08:16:57;5.63;;;2.05;;
14306;SDS011;7237;49.500;11.400;2022-07-29T08:19:25;5.40;;;1.80;;
14306;SDS011;7237;49.500;11.400;2022-07-29T08:21:52;6.00;;;2.00;;
14306;SDS011;7237;49.500;11.400;2022-07-29T08:24:20;4.30;;;2.47;;
14306;SDS011;7237;49.500;11.400;2022-07-29T08:27:05;2.72;;;2.00;;
14306;SDS011;7237;49.500;11.400;2022-07-29T08:29:32;5.38;;;2.10;;
14306;SDS011;7237;49.500;11.400;2022-07-29T08:31:59;3.03;;;1.75;;
14306;SDS011;7237;49.500;11.400;2022-07-29T08:34:27;5.65;;;2.25;;
14306;SDS011;7237;49.500;11.400;2022-07-29T08:36:55;5.47;;;2.08;;
14306;SDS011;7237;49.500;11.400;2022-07-29T08:39:22;9.38;;;2.40;;
14306;SDS011;7237;49.500;11.400;2022-07-29T08:41:49;8.02;;;2.42;;
14306;SDS011;7237;49.500;11.400;2022-07-29T08:44:17;3.28;;;2.03;;
14306;SDS011;7237;49.500;11.400;2022-07-29T08:46:44;4.43;;;2.20;;
14306;SDS011;7237;49.500;11.400;2022-07-29T08:49:11;5.43;;;2.50;;
14306;SDS011;7237;49.500;11.400;2022-07-29T08:51:40;7.63;;;2.25;;
14306;SDS011;7237;49.500;11.400;2022-07-29T08:54:08;5.30;;;2.40;;
14306;SDS011;7237;49.500;11.400;2022-07-29T08:56:35;6.70;;;2.30;;
14306;SDS011;7237;49.500;11.400;2022-07-29T08:59:02;10.07;;;2.80;;
14306;SDS011;7237;49.500;11.400;2022-07-29T09:01:32;5.55;;;2.38;;
14306;SDS011;7237;49.500;11.400;2022-07-29T09:03:59;7.93;;;2.85;;
14306;SDS011;7237;49.500;11.400;2022-07-29T09:06:29;3.80;;;2.55;;
14306;SDS011;7237;49.500;11.400;2022-07-29T09:08:59;3.80;;;2.60;;
14306;SDS011;7237;49.500;11.400;2022-07-29T09:11:26;5.45;;;3.00;;
14306;SDS011;7237;49.500;11.400;2022-07-29T09:13:53;4.60;;;2.50;;
14306;SDS011;7237;49.500;11.400;2022-07-29T09:16:20;5.82;;;2.50;;
14306;SDS011;7237;49.500;11.400;2022-07-29T09:18:47;6.38;;;2.58;;
14306;SDS011;7237;49.500;11.400;2022-07-29T09:21:15;4.85;;;2.53;;
14306;SDS011;7237;49.500;11.400;2022-07-29T09:24:03;3.78;;;2.65;;
14306;SDS011;7237;49.500;11.400;2022-07-29T09:26:32;5.05;;;2.95;;
14306;SDS011;7237;49.500;11.400;2022-07-29T09:28:59;4.45;;;2.50;;
14306;SDS011;7237;49.500;11.400;2022-07-29T09:31:32;4.82;;;2.58;;
14306;SDS011;7237;49.500;11.400;2022-07-29T09:33:59;5.72;;;2.60;;
14306;SDS011;7237;49.500;11.400;2022-07-29T09:36:26;3.42;;;2.75;;
14306;SDS011;7237;49.500;11.400;2022-07-29T09:38:57;8.70;;;2.67;;
14306;SDS011;7237;49.500;11.400;2022-07-29T09:41:26;5.60;;;2.83;;
14306;SDS011;7237;49.500;11.400;2022-07-29T09:43:54;4.03;;;2.70;;
14306;SDS011;7237;49.500;11.400;2022-07-29T09:46:21;3.03;;;2.72;;
14306;SDS011;7237;49.500;11.400;2022-07-29T09:51:30;5.80;;;2.85;;
14306;SDS011;7237;49.500;11.400;2022-07-29T09:53:57;8.02;;;2.97;;
14306;SDS011;7237;49.500;11.400;2022-07-29T09:56:39;3.15;;;2.60;;
14306;SDS011;7237;49.500;11.400;2022-07-29T09:59:06;5.13;;;3.15;;
14306;SDS011;7237;49.500;11.400;2022-07-29T10:01:33;4.93;;;2.90;;
14306;SDS011;7237;49.500;11.400;2022-07-29T10:04:01;4.47;;;2.88;;
14306;SDS011;7237;49.500;11.400;2022-07-29T10:06:28;4.70;;;3.15;;
14306;SDS011;7237;49.500;11.400;2022-07-29T10:09:01;4.70;;;3.42;;
14306;SDS011;7237;49.500;11.400;2022-07-29T10:11:33;6.38;;;3.30;;
14306;SDS011;7237;49.500;11.400;2022-07-29T10:14:02;6.40;;;3.22;;
14306;SDS011;7237;49.500;11.400;2022-07-29T10:16:29;4.45;;;3.13;;
14306;SDS011;7237;49.500;11.400;2022-07-29T10:18:58;4.22;;;3.30;;
14306;SDS011;7237;49.500;11.400;2022-07-29T10:21:26;3.72;;;3.13;;
14306;SDS011;7237;49.500;11.400;2022-07-29T10:23:53;10.43;;;3.10;;
14306;SDS011;7237;49.500;11.400;2022-07-29T10:26:20;3.17;;;2.92;;
14306;SDS011;7237;49.500;11.400;2022-07-29T10:28:47;4.35;;;3.03;;
14306;SDS011;7237;49.500;11.400;2022-07-29T10:31:29;5.88;;;2.92;;
14306;SDS011;7237;49.500;11.400;2022-07-29T10:34:02;5.82;;;2.97;;
14306;SDS011;7237;49.500;11.400;2022-07-29T10:36:35;3.22;;;2.92;;
14306;SDS011;7237;49.500;11.400;2022-07-29T10:39:05;5.43;;;2.85;;
14306;SDS011;7237;49.500;11.400;2022-07-29T10:41:47;6.03;;;3.22;;
14306;SDS011;7237;49.500;11.400;2022-07-29T10:44:20;6.20;;;3.17;;
14306;SDS011;7237;49.500;11.400;2022-07-29T10:46:48;4.30;;;2.88;;
14306;SDS011;7237;49.500;11.400;2022-07-29T10:49:16;5.78;;;3.08;;
14306;SDS011;7237;49.500;11.400;2022-07-29T10:54:42;4.10;;;3.45;;
14306;SDS011;7237;49.500;11.400;2022-07-29T10:57:13;4.35;;;3.15;;
14306;SDS011;7237;49.500;11.400;2022-07-29T10:59:41;3.58;;;2.95;;
14306;SDS011;7237;49.500;11.400;2022-07-29T11:04:59;6.63;;;2.90;;
14306;SDS011;7237;49.500;11.400;2022-07-29T11:07:28;5.25;;;3.50;;
14306;SDS011;7237;49.500;11.400;2022-07-29T11:12:46;4.70;;;3.03;;
14306;SDS011;7237;49.500;11.400;2022-07-29T11:15:14;3.53;;;3.20;;
14306;SDS011;7237;49.500;11.400;2022-07-29T11:20:35;5.57;;;3.20;;
14306;SDS011;7237;49.500;11.400;2022-07-29T11:23:17;3.80;;;3.17;;
14306;SDS011;7237;49.500;11.400;2022-07-29T11:25:44;4.05;;;2.90;;
14306;SDS011;7237;49.500;11.400;2022-07-29T11:28:12;4.93;;;2.90;;
14306;SDS011;7237;49.500;11.400;2022-07-29T11:30:50;3.47;;;3.25;;
14306;SDS011;7237;49.500;11.400;2022-07-29T11:33:27;4.82;;;3.17;;
14306;SDS011;7237;49.500;11.400;2022-07-29T11:38:43;3.85;;;3.20;;
14306;SDS011;7237;49.500;11.400;2022-07-29T11:41:22;5.53;;;3.17;;
14306;SDS011;7237;49.500;11.400;2022-07-29T11:43:50;5.18;;;2.90;;
14306;SDS011;7237;49.500;11.400;2022-07-29T11:46:22;7.38;;;3.22;;
14306;SDS011;7237;49.500;11.400;2022-07-29T11:49:07;5.78;;;3.45;;
14306;SDS011;7237;49.500;11.400;2022-07-29T11:51:35;7.18;;;3.72;;
14306;SDS011;7237;49.500;11.400;2022-07-29T11:54:04;4.07;;;3.17;;
14306;SDS011;7237;49.500;11.400;2022-07-29T11:56:31;3.30;;;2.97;;
14306;SDS011;7237;49.500;11.400;2022-07-29T11:59:08;4.35;;;3.53;;
14306;SDS011;7237;49.500;11.400;2022-07-29T12:01:35;4.07;;;3.70;;
14306;SDS011;7237;49.500;11.400;2022-07-29T12:04:02;10.10;;;4.28;;
14306;SDS011;7237;49.500;11.400;2022-07-29T12:06:29;5.95;;;3.45;;
14306;SDS011;7237;49.500;11.400;2022-07-29T12:08:57;3.85;;;3.55;;
14306;SDS011;7237;49.500;11.400;2022-07-29T12:11:26;7.10;;;3.50;;
14306;SDS011;7237;49.500;11.400;2022-07-29T12:13:53;6.80;;;3.50;;
14306;SDS011;7237;49.500;11.400;2022-07-29T12:16:20;8.40;;;3.78;;
14306;SDS011;7237;49.500;11.400;2022-07-29T12:18:54;5.07;;;3.35;;
14306;SDS011;7237;49.500;11.400;2022-07-29T12:21:21;4.15;;;3.67;;
14306;SDS011;7237;49.500;11.400;2022-07-29T12:23:51;19.58;;;7.22;;
14306;SDS011;7237;49.500;11.400;2022-07-29T12:26:19;25.95;;;9.95;;
14306;SDS011;7237;49.500;11.400;2022-07-29T12:28:48;14.65;;;5.55;;
14306;SDS011;7237;49.500;11.400;2022-07-29T12:31:15;17.05;;;6.25;;
14306;SDS011;7237;49.500;11.400;2022-07-29T12:33:42;14.88;;;6.68;;
14306;SDS011;7237;49.500;11.400;2022-07-29T12:36:10;20.00;;;6.93;;
14306;SDS011;7237;49.500;11.400;2022-07-29T12:38:37;22.30;;;7.97;;
14306;SDS011;7237;49.500;11.400;2022-07-29T12:41:06;16.23;;;7.18;;
14306;SDS011;7237;49.500;11.400;2022-07-29T12:43:33;17.10;;;6.07;;
14306;SDS011;7237;49.500;11.400;2022-07-29T12:46:12;9.27;;;5.53;;
14306;SDS011;7237;49.500;11.400;2022-07-29T12:48:40;11.65;;;4.93;;
14306;SDS011;7237;49.500;11.400;2022-07-29T12:51:08;8.25;;;4.93;;
14306;SDS011;7237;49.500;11.400;2022-07-29T12:53:36;11.32;;;5.38;;
14306;SDS011;7237;49.500;11.400;2022-07-29T12:56:04;20.92;;;7.50;;
14306;SDS011;7237;49.500;11.400;2022-07-29T12:58:32;18.45;;;6.80;;
14306;SDS011;7237;49.500;11.400;2022-07-29T13:01:07;11.70;;;5.03;;
14306;SDS011;7237;49.500;11.400;2022-07-29T13:03:50;7.55;;;3.42;;
14306;SDS011;7237;49.500;11.400;2022-07-29T13:06:28;8.73;;;3.63;;
14306;SDS011;7237;49.500;11.400;2022-07-29T13:08:58;12.55;;;3.78;;
14306;SDS011;7237;49.500;11.400;2022-07-29T13:11:29;9.85;;;4.05;;
14306;SDS011;7237;49.500;11.400;2022-07-29T13:13:56;5.30;;;2.70;;
14306;SDS011;7237;49.500;11.400;2022-07-29T13:16:23;7.57;;;3.50;;
14306;SDS011;7237;49.500;11.400;2022-07-29T13:19:03;9.00;;;3.25;;
14306;SDS011;7237;49.500;11.400;2022-07-29T13:21:31;5.97;;;2.28;;
14306;SDS011;7237;49.500;11.400;2022-07-29T13:23:58;6.90;;;2.40;;
14306;SDS011;7237;49.500;11.400;2022-07-29T13:26:25;2.92;;;2.20;;
14306;SDS011;7237;49.500;11.400;2022-07-29T13:28:52;2.47;;;2.10;;
14306;SDS011;7237;49.500;11.400;2022-07-29T13:31:19;4.68;;;2.58;;
14306;SDS011;7237;49.500;11.400;2022-07-29T13:33:47;6.85;;;2.55;;
14306;SDS011;7237;49.500;11.400;2022-07-29T13:36:15;2.97;;;2.20;;
14306;SDS011;7237;49.500;11.400;2022-07-29T13:38:42;3.85;;;3.05;;
14306;SDS011;7237;49.500;11.400;2022-07-29T13:41:09;3.20;;;2.90;;
14306;SDS011;7237;49.500;11.400;2022-07-29T13:43:36;5.18;;;3.40;;
14306;SDS011;7237;49.500;11.400;2022-07-29T13:46:03;4.97;;;3.58;;
14306;SDS011;7237;49.500;11.400;2022-07-29T13:48:30;4.50;;;3.10;;
14306;SDS011;7237;49.500;11.400;2022-07-29T13:50:57;4.45;;;3.50;;
14306;SDS011;7237;49.500;11.400;2022-07-29T13:53:27;3.35;;;3.05;;
14306;SDS011;7237;49.500;11.400;2022-07-29T13:55:54;4.97;;;4.47;;
14306;SDS011;7237;49.500;11.400;2022-07-29T13:58:21;4.20;;;2.97;;
14306;SDS011;7237;49.500;11.400;2022-07-29T14:00:48;3.05;;;2.85;;
14306;SDS011;7237;49.500;11.400;2022-07-29T14:03:15;4.38;;;3.10;;
14306;SDS011;7237;49.500;11.400;2022-07-29T14:05:42;3.72;;;2.78;;
14306;SDS011;7237;49.500;11.400;2022-07-29T14:08:09;4.57;;;3.42;;
14306;SDS011;7237;49.500;11.400;2022-07-29T14:10:38;3.65;;;3.35;;
14306;SDS011;7237;49.500;11.400;2022-07-29T14:13:05;3.95;;;3.22;;
14306;SDS011;7237;49.500;11.400;2022-07-29T14:15:32;4.60;;;3.40;;
14306;SDS011;7237;49.500;11.400;2022-07-29T14:17:59;4.05;;;3.45;;
14306;SDS011;7237;49.500;11.400;2022-07-29T14:20:26;5.53;;;3.70;;
14306;SDS011;7237;49.500;11.400;2022-07-29T14:22:54;5.90;;;4.20;;
14306;SDS011;7237;49.500;11.400;2022-07-29T14:25:21;5.50;;;3.70;;
14306;SDS011;7237;49.500;11.400;2022-07-29T14:27:50;3.88;;;3.50;;
14306;SDS011;7237;49.500;11.400;2022-07-29T14:30:18;5.93;;;3.70;;
14306;SDS011;7237;49.500;11.400;2022-07-29T14:32:45;8.88;;;3.50;;
14306;SDS011;7237;49.500;11.400;2022-07-29T14:35:12;6.63;;;4.05;;
14306;SDS011;7237;49.500;11.400;2022-07-29T14:37:39;4.13;;;3.70;;
14306;SDS011;7237;49.500;11.400;2022-07-29T14:40:07;4.75;;;4.15;;
14306;SDS011;7237;49.500;11.400;2022-07-29T14:42:34;4.60;;;4.30;;
14306;SDS011;7237;49.500;11.400;2022-07-29T14:45:04;6.53;;;4.22;;
14306;SDS011;7237;49.500;11.400;2022-07-29T14:47:31;5.03;;;4.53;;
14306;SDS011;7237;49.500;11.400;2022-07-29T14:49:58;7.70;;;4.38;;
14306;SDS011;7237;49.500;11.400;2022-07-29T14:52:25;5.68;;;4.32;;
14306;SDS011;7237;49.500;11.400;2022-07-29T14:54:52;4.68;;;3.72;;
14306;SDS011;7237;49.500;11.400;2022-07-29T14:57:19;5.38;;;4.18;;
14306;SDS011;7237;49.500;11.400;2022-07-29T14:59:46;5.25;;;3.97;;
14306;SDS011;7237;49.500;11.400;2022-07-29T15:02:15;5.70;;;4.57;;
14306;SDS011;7237;49.500;11.400;2022-07-29T15:04:42;7.57;;;4.95;;
14306;SDS011;7237;49.500;11.400;2022-07-29T15:07:10;6.63;;;4.85;;
14306;SDS011;7237;49.500;11.400;2022-07-29T15:09:38;6.95;;;4.82;;
14306;SDS011;7237;49.500;11.400;2022-07-29T15:12:05;7.38;;;4.50;;